Time;durP1;ratioP1;P1;durP2;ratioP2;P2;SDS_P1;SDS_P2;PMS_P1;PMS_P2;Temp;Humidity;BMP_temperature;BMP_pressure;BME280_temperature;BME280_humidity;BME280_pressure;Samples;Min_cycle;Max_cycle;Signal;HPM_P1;HPM_P2
2021/09/01 12:33:21;;;;;;;6.28;3.70;;;;;;;;;;12933845;22;20012;-86
2021/09/01 12:38:37;;;;;;;8.43;4.30;;;;;;;;;;12970292;23;20020;-85
2021/09/01 12:54:36;;;;;;;14.88;6.10;;;;;;;;;;12924178;23;20035;-88
2021/09/01 12:59:37;;;;;;;8.07;5.15;;;;;;;;;;12929146;23;20007;-87
2021/09/01 13:04:39;;;;;;;9.65;5.45;;;;;;;;;;12934215;22;19997;-85
2021/09/01 13:09:40;;;;;;;7.53;5.40;;;;;;;;;;12931595;23;20062;-85
2021/09/01 13:14:41;;;;;;;9.13;5.50;;;;;;;;;;12929981;22;20044;-85
2021/09/01 13:19:42;;;;;;;8.05;6.50;;;;;;;;;;12930746;23;20015;-84
2021/09/01 13:24:43;;;;;;;11.18;6.25;;;;;;;;;;12933943;22;20004;-86
2021/09/01 13:29:44;;;;;;;9.98;6.32;;;;;;;;;;12936121;23;20409;-86
2021/09/01 13:34:45;;;;;;;7.57;5.57;;;;;;;;;;12933927;22;20012;-86
2021/09/01 13:39:46;;;;;;;8.90;5.57;;;;;;;;;;12934915;23;20008;-85
2021/09/01 13:44:49;;;;;;;8.52;5.25;;;;;;;;;;12952808;22;20055;-87
2021/09/01 13:49:51;;;;;;;7.88;5.10;;;;;;;;;;12930429;22;20043;-85
2021/09/01 13:54:52;;;;;;;8.77;5.43;;;;;;;;;;12927588;23;20441;-85
2021/09/01 13:59:53;;;;;;;9.82;5.60;;;;;;;;;;12929003;22;20007;-85
2021/09/01 14:04:54;;;;;;;9.02;5.53;;;;;;;;;;12928492;23;20092;-88
2021/09/01 14:09:55;;;;;;;7.57;5.55;;;;;;;;;;12932802;22;20012;-85
2021/09/01 14:14:56;;;;;;;7.97;5.40;;;;;;;;;;12937577;23;20064;-86
2021/09/01 14:19:57;;;;;;;7.90;4.70;;;;;;;;;;12934977;22;20091;-86
2021/09/01 14:24:58;;;;;;;8.82;4.47;;;;;;;;;;12936467;23;20004;-86
2021/09/01 14:29:59;;;;;;;7.78;4.72;;;;;;;;;;12946121;22;20011;-86
2021/09/01 14:35:03;;;;;;;8.77;4.95;;;;;;;;;;12934205;23;20405;-86
2021/09/01 14:40:07;;;;;;;7.55;4.50;;;;;;;;;;12934507;22;20004;-86
2021/09/01 14:45:08;;;;;;;6.28;4.47;;;;;;;;;;12934850;23;20050;-85
2021/09/01 14:50:09;;;;;;;8.98;4.72;;;;;;;;;;12930668;22;20012;-86
2021/09/01 14:55:11;;;;;;;7.03;3.97;;;;;;;;;;12931197;23;20008;-86
2021/09/01 15:00:12;;;;;;;7.22;4.22;;;;;;;;;;12930958;22;20012;-85
2021/09/01 15:05:23;;;;;;;6.80;4.28;;;;;;;;;;12929309;23;20011;-85
2021/09/01 15:10:24;;;;;;;;;;;;;;;;;;12934353;22;20329;-83
2021/09/01 15:15:24;;;;;;;9.60;3.58;;;;;;;;;;12934488;23;19909;-85
2021/09/01 15:20:25;;;;;;;7.13;3.83;;;;;;;;;;12935276;22;20054;-85
2021/09/01 15:25:26;;;;;;;6.50;3.70;;;;;;;;;;12936334;23;20015;-87
2021/09/01 15:30:27;;;;;;;9.27;3.80;;;;;;;;;;12931729;22;20008;-86
2021/09/01 15:35:28;;;;;;;8.77;3.72;;;;;;;;;;12930207;23;19996;-85
2021/09/01 15:40:34;;;;;;;6.53;3.53;;;;;;;;;;12963546;22;20067;-87
2021/09/01 15:45:35;;;;;;;6.90;4.70;;;;;;;;;;12932668;23;20448;-88
2021/09/01 15:50:37;;;;;;;6.85;4.60;;;;;;;;;;12934791;22;20027;-85
2021/09/01 15:55:39;;;;;;;6.07;3.95;;;;;;;;;;12940919;23;20104;-84
2021/09/01 16:00:40;;;;;;;7.68;4.10;;;;;;;;;;12942808;22;20011;-86
2021/09/01 16:05:42;;;;;;;6.53;3.65;;;;;;;;;;12939551;23;20014;-86
2021/09/01 16:10:58;;;;;;;5.07;3.92;;;;;;;;;;12933790;22;20000;-86
2021/09/01 16:16:03;;;;;;;6.32;3.78;;;;;;;;;;12922436;23;20083;-86
2021/09/01 16:21:09;;;;;;;6.82;3.63;;;;;;;;;;12942765;22;20192;-85
2021/09/01 16:26:10;;;;;;;5.00;3.58;;;;;;;;;;12934093;23;20006;-86
2021/09/01 16:31:18;;;;;;;6.45;3.65;;;;;;;;;;12931215;22;20319;-87
2021/09/01 16:36:25;;;;;;;6.18;3.88;;;;;;;;;;12927298;23;20007;-87
2021/09/01 16:41:50;;;;;;;6.20;3.78;;;;;;;;;;12928634;22;20071;-86
2021/09/01 16:46:51;;;;;;;5.72;3.42;;;;;;;;;;12926630;23;20004;-87
2021/09/01 16:58:00;;;;;;;5.47;3.30;;;;;;;;;;12927606;23;19999;-88
2021/09/01 17:14:30;;;;;;;4.80;3.13;;;;;;;;;;12859561;23;20290;-87
2021/09/01 20:11:56;;;;;;;6.18;4.15;;;;;;;;;;12988548;22;20351;-87
2021/09/01 20:17:16;;;;;;;4.18;3.13;;;;;;;;;;12921103;22;20407;-88
